Time;durP1;ratioP1;P1;durP2;ratioP2;P2;SDS_P1;SDS_P2;PMS_P1;PMS_P2;Temp;Humidity;BMP_temperature;BMP_pressure;BME280_temperature;BME280_humidity;BME280_pressure;Samples;Min_cycle;Max_cycle;Signal;HPM_P1;HPM_P2
2021/06/22 00:00:25;;;;;;;;;;;;;;;21.83;62.07;100108.75;4944035;28;20391;-92
2021/06/22 00:02:51;;;;;;;;;;;;;;;21.81;63.04;100109.09;4948819;28;20358;-92
2021/06/22 00:05:19;;;;;;;;;;;;;;;21.75;62.53;100110.56;4957553;28;19932;-91
2021/06/22 00:07:50;;;;;;;;;;;;;;;21.72;63.42;100108.53;4961817;28;19925;-92
2021/06/22 00:10:17;;;;;;;;;;;;;;;21.69;62.79;100109.25;4948388;28;19926;-92
2021/06/22 00:12:43;;;;;;;;;;;;;;;21.66;63.01;100110.81;4941169;28;20295;-92
2021/06/22 00:15:10;;;;;;;;;;;;;;;21.62;63.04;100118.28;4941201;28;19926;-92
2021/06/22 00:17:36;;;;;;;;;;;;;;;21.60;62.88;100109.50;4943271;28;19973;-92
2021/06/22 00:20:03;;;;;;;;;;;;;;;21.58;63.73;100109.88;4944796;28;20338;-91
2021/06/22 00:22:32;;;;;;;;;;;;;;;21.57;63.84;100113.81;4961119;28;20032;-91
2021/06/22 00:24:58;;;;;;;;;;;;;;;21.54;63.70;100116.53;4990525;28;19962;-91
2021/06/22 00:27:24;;;;;;;;;;;;;;;21.52;62.82;100113.31;4946306;28;19932;-92
2021/06/22 00:29:50;;;;;;;;;;;;;;;21.48;63.27;100121.59;4951556;28;19926;-91
2021/06/22 00:32:20;;;;;;;;;;;;;;;21.47;62.99;100125.56;4963726;28;19980;-92
2021/06/22 00:34:46;;;;;;;;;;;;;;;21.45;63.47;100127.09;4957600;28;19930;-91
2021/06/22 00:37:16;;;;;;;;;;;;;;;21.43;63.90;100126.66;4941202;28;19937;-90
2021/06/22 00:39:43;;;;;;;;;;;;;;;21.40;64.09;100128.19;4922313;29;19936;-91
2021/06/22 00:42:10;;;;;;;;;;;;;;;21.41;63.23;100129.78;4953820;28;19926;-91
2021/06/22 00:44:49;;;;;;;;;;;;;;;21.41;63.62;100127.00;4954101;28;20051;-91
2021/06/22 00:47:16;;;;;;;;;;;;;;;21.41;63.90;100129.00;4957346;28;19926;-92
2021/06/22 00:49:51;;;;;;;;;;;;;;;21.41;63.97;100126.22;4928869;28;19926;-91
2021/06/22 00:52:20;;;;;;;;;;;;;;;21.40;64.04;100130.97;4951938;28;20020;-92
2021/06/22 00:54:46;;;;;;;;;;;;;;;21.41;64.45;100131.78;4944668;28;20291;-92
2021/06/22 00:57:14;;;;;;;;;;;;;;;21.41;64.74;100132.56;4960351;28;19922;-91
2021/06/22 00:59:44;;;;;;;;;;;;;;;21.39;64.22;100128.53;4939507;28;19930;-91
2021/06/22 01:02:10;;;;;;;;;;;;;;;21.38;64.03;100132.50;4946562;28;19969;-90
2021/06/22 01:04:38;;;;;;;;;;;;;;;21.32;64.12;100132.78;4976692;28;19926;-92
2021/06/22 01:07:24;;;;;;;;;;;;;;;21.29;64.10;100130.72;4957790;28;19925;-92
2021/06/22 01:09:50;;;;;;;;;;;;;;;21.25;63.86;100129.03;4960589;28;20020;-92
2021/06/22 01:12:16;;;;;;;;;;;;;;;21.27;63.80;100133.06;4958575;28;20012;-92
2021/06/22 01:14:44;;;;;;;;;;;;;;;21.28;63.58;100134.66;4948578;28;20334;-92
2021/06/22 01:17:12;;;;;;;;;;;;;;;21.32;63.22;100130.00;4952246;28;20343;-92
2021/06/22 01:19:40;;;;;;;;;;;;;;;21.34;64.42;100138.81;4944581;28;19930;-92
2021/06/22 01:22:06;;;;;;;;;;;;;;;21.37;63.42;100137.28;4927599;28;19933;-91
2021/06/22 01:24:44;;;;;;;;;;;;;;;21.39;64.33;100134.09;4948124;28;20306;-91
2021/06/22 01:27:12;;;;;;;;;;;;;;;21.41;64.28;100137.34;4948530;28;19929;-91
2021/06/22 01:29:38;;;;;;;;;;;;;;;21.42;63.61;100130.59;4947894;28;19926;-91
2021/06/22 01:32:07;;;;;;;;;;;;;;;21.40;64.15;100141.31;4934398;28;19929;-91
2021/06/22 01:34:34;;;;;;;;;;;;;;;21.38;64.24;100143.63;4961171;28;20024;-92
2021/06/22 01:37:06;;;;;;;;;;;;;;;21.39;63.85;100139.66;4935180;28;20314;-90
2021/06/22 01:39:39;;;;;;;;;;;;;;;21.42;64.21;100139.75;4962142;28;19922;-90
2021/06/22 01:42:05;;;;;;;;;;;;;;;21.45;64.17;100139.00;4960423;28;19936;-91
2021/06/22 01:44:35;;;;;;;;;;;;;;;21.49;63.92;100142.69;4934108;28;20020;-91
2021/06/22 01:47:04;;;;;;;;;;;;;;;21.56;63.88;100150.38;4960116;28;19936;-92
2021/06/22 01:49:31;;;;;;;;;;;;;;;21.56;63.40;100145.63;4943981;28;19926;-91
2021/06/22 01:51:57;;;;;;;;;;;;;;;21.54;63.97;100144.38;4929257;28;19926;-90
2021/06/22 01:54:24;;;;;;;;;;;;;;;21.51;64.00;100148.69;4960173;28;20466;-92
2021/06/22 01:56:54;;;;;;;;;;;;;;;21.54;64.05;100149.94;4945736;28;19933;-92
2021/06/22 01:59:22;;;;;;;;;;;;;;;21.57;63.60;100157.53;4959951;28;20406;-91
2021/06/22 02:01:50;;;;;;;;;;;;;;;21.59;64.86;100166.34;4959283;28;19976;-91
2021/06/22 02:04:36;;;;;;;;;;;;;;;21.66;63.87;100155.34;4945841;28;20400;-91
2021/06/22 02:07:07;;;;;;;;;;;;;;;21.72;63.79;100164.19;4951304;28;19933;-92
2021/06/22 02:09:54;;;;;;;;;;;;;;;21.77;63.24;100166.69;4946252;28;19926;-91
2021/06/22 02:12:43;;;;;;;;;;;;;;;21.84;62.72;100157.66;4957828;29;19923;-91
2021/06/22 02:15:10;;;;;;;;;;;;;;;21.89;62.88;100166.53;4967523;28;20350;-91
2021/06/22 02:17:37;;;;;;;;;;;;;;;21.94;62.94;100159.84;4979940;28;20386;-91
2021/06/22 02:20:05;;;;;;;;;;;;;;;21.98;62.56;100169.06;4943866;28;19973;-89
2021/06/22 02:22:36;;;;;;;;;;;;;;;21.98;63.91;100167.09;4963224;28;19925;-89
2021/06/22 02:25:04;;;;;;;;;;;;;;;22.00;64.14;100169.50;4965713;28;19972;-88
2021/06/22 02:27:32;;;;;;;;;;;;;;;22.01;63.93;100169.13;4943541;28;20307;-90
2021/06/22 02:30:00;;;;;;;;;;;;;;;22.03;64.12;100166.00;4942818;28;19926;-88
2021/06/22 02:32:32;;;;;;;;;;;;;;;22.06;63.98;100173.59;4926529;28;19927;-89
2021/06/22 02:35:08;;;;;;;;;;;;;;;22.11;64.48;100172.47;4970463;28;19932;-90
2021/06/22 02:37:34;;;;;;;;;;;;;;;22.17;64.46;100177.41;4971514;28;20025;-89
2021/06/22 02:40:01;;;;;;;;;;;;;;;22.17;65.02;100171.03;4958811;28;19926;-89
2021/06/22 02:42:28;;;;;;;;;;;;;;;22.21;65.10;100180.25;4939027;28;20020;-89
2021/06/22 02:44:57;;;;;;;;;;;;;;;22.26;65.00;100180.75;4943619;28;19926;-89
2021/06/22 02:47:25;;;;;;;;;;;;;;;22.32;64.95;100180.44;4945939;28;20319;-89
2021/06/22 02:49:51;;;;;;;;;;;;;;;22.36;63.76;100170.19;4961478;28;19981;-88
2021/06/22 02:52:18;;;;;;;;;;;;;;;22.42;64.12;100179.84;4961336;28;19928;-88
2021/06/22 02:54:44;;;;;;;;;;;;;;;22.45;64.06;100181.84;4966447;28;19926;-90
2021/06/22 02:57:11;;;;;;;;;;;;;;;22.51;63.70;100180.38;4941992;28;19922;-89
2021/06/22 02:59:38;;;;;;;;;;;;;;;22.55;63.49;100184.06;4958162;28;19933;-89
2021/06/22 03:02:07;;;;;;;;;;;;;;;22.60;63.49;100185.72;4948392;28;19926;-89
2021/06/22 03:04:33;;;;;;;;;;;;;;;22.67;63.30;100174.66;4962770;28;19929;-89
2021/06/22 03:07:00;;;;;;;;;;;;;;;22.69;63.47;100173.13;4947036;28;19926;-90
2021/06/22 03:09:29;;;;;;;;;;;;;;;22.69;63.61;100178.69;4933576;28;19930;-89
2021/06/22 03:11:55;;;;;;;;;;;;;;;22.71;63.03;100179.13;4993099;28;19976;-88
2021/06/22 03:14:22;;;;;;;;;;;;;;;22.79;63.17;100177.25;4967295;28;20377;-89
2021/06/22 03:17:17;;;;;;;;;;;;;;;22.91;63.03;100170.66;4922953;29;19952;-89
2021/06/22 03:19:44;;;;;;;;;;;;;;;22.96;63.02;100181.53;4931830;28;19926;-89
2021/06/22 03:22:13;;;;;;;;;;;;;;;23.04;62.90;100177.66;4976304;28;19925;-90
2021/06/22 03:24:46;;;;;;;;;;;;;;;23.11;62.00;100174.16;4950587;28;19926;-89
2021/06/22 03:27:12;;;;;;;;;;;;;;;23.18;62.70;100182.66;4958129;28;19934;-89
2021/06/22 03:30:09;;;;;;;;;;;;;;;23.29;62.50;100168.84;4956167;28;20297;-89
2021/06/22 03:32:35;;;;;;;;;;;;;;;23.37;61.46;100178.91;4945835;28;19922;-89
2021/06/22 03:35:05;;;;;;;;;;;;;;;23.43;62.29;100171.81;4957391;28;19980;-89
2021/06/22 03:37:31;;;;;;;;;;;;;;;23.50;62.25;100179.47;4957214;28;19929;-89
2021/06/22 03:39:57;;;;;;;;;;;;;;;23.56;62.08;100175.97;4957819;28;19926;-89
2021/06/22 03:42:23;;;;;;;;;;;;;;;23.64;62.44;100176.84;4976100;28;20505;-89
2021/06/22 03:44:53;;;;;;;;;;;;;;;23.69;61.80;100176.53;4932334;28;20459;-89
2021/06/22 03:47:22;;;;;;;;;;;;;;;23.75;61.02;100175.03;4956231;28;19930;-89
2021/06/22 03:49:48;;;;;;;;;;;;;;;23.82;60.48;100180.69;4940603;28;19926;-89
2021/06/22 03:52:15;;;;;;;;;;;;;;;23.86;60.89;100173.16;4949719;28;19972;-88
2021/06/22 03:54:41;;;;;;;;;;;;;;;23.94;60.35;100176.84;4936914;29;19933;-89
2021/06/22 03:57:08;;;;;;;;;;;;;;;24.02;60.56;100180.50;4938257;29;19926;-89
2021/06/22 04:00:06;;;;;;;;;;;;;;;24.09;60.86;100181.38;4943640;28;19930;-90
2021/06/22 04:02:43;;;;;;;;;;;;;;;24.15;61.30;100177.03;4961862;28;19926;-89
2021/06/22 04:05:13;;;;;;;;;;;;;;;24.21;60.44;100182.28;4936555;28;19926;-89
2021/06/22 04:07:53;;;;;;;;;;;;;;;24.28;60.08;100188.75;4971780;28;19933;-89
2021/06/22 04:10:20;;;;;;;;;;;;;;;24.33;59.74;100182.78;4940352;28;19932;-90
2021/06/22 04:12:51;;;;;;;;;;;;;;;24.41;59.98;100180.13;4922523;29;19926;-88
2021/06/22 04:15:18;;;;;;;;;;;;;;;24.48;59.89;100189.34;4940409;28;20343;-89
2021/06/22 04:17:44;;;;;;;;;;;;;;;24.55;58.86;100181.03;4973940;28;19926;-88
2021/06/22 04:20:11;;;;;;;;;;;;;;;24.64;59.47;100182.72;4956239;28;20458;-89
2021/06/22 04:22:38;;;;;;;;;;;;;;;24.69;59.41;100185.13;4966693;28;19933;-88
2021/06/22 04:25:12;;;;;;;;;;;;;;;24.75;60.03;100180.78;4945553;28;19948;-89
2021/06/22 04:27:38;;;;;;;;;;;;;;;24.84;59.52;100182.06;4993352;28;19953;-89
2021/06/22 04:30:05;;;;;;;;;;;;;;;24.90;59.47;100188.09;4976279;28;19926;-87
2021/06/22 04:32:32;;;;;;;;;;;;;;;24.98;59.76;100186.94;4973227;28;19973;-88
2021/06/22 04:34:58;;;;;;;;;;;;;;;25.05;59.31;100180.59;4941164;28;19926;-88
2021/06/22 04:37:24;;;;;;;;;;;;;;;25.13;59.48;100179.44;4973698;28;19949;-89
2021/06/22 04:39:50;;;;;;;;;;;;;;;25.21;58.70;100186.72;4986488;28;20041;-88
2021/06/22 04:42:16;;;;;;;;;;;;;;;25.30;58.66;100184.38;4936716;28;19968;-88
2021/06/22 04:44:42;;;;;;;;;;;;;;;25.37;57.16;100192.00;4986062;28;19930;-89
2021/06/22 04:47:08;;;;;;;;;;;;;;;25.47;57.20;100187.66;4928780;28;19925;-88
2021/06/22 04:49:35;;;;;;;;;;;;;;;25.54;57.52;100190.47;4948084;28;19933;-89
2021/06/22 04:52:01;;;;;;;;;;;;;;;25.60;56.27;100188.09;4955382;28;20603;-88
2021/06/22 04:54:27;;;;;;;;;;;;;;;25.67;57.15;100182.53;4956248;28;19925;-89
2021/06/22 04:56:53;;;;;;;;;;;;;;;25.75;56.93;100178.53;4974274;28;19930;-86
2021/06/22 04:59:18;;;;;;;;;;;;;;;25.85;56.22;100186.22;4974233;28;19996;-89
2021/06/22 05:01:45;;;;;;;;;;;;;;;25.92;56.63;100186.22;4968061;28;19926;-88
2021/06/22 05:04:12;;;;;;;;;;;;;;;26.01;55.78;100194.25;4955778;28;19926;-82
2021/06/22 05:06:39;;;;;;;;;;;;;;;26.17;54.54;100191.09;4973666;28;19926;-83
2021/06/22 05:09:05;;;;;;;;;;;;;;;26.30;54.74;100197.13;4974927;28;20531;-82
2021/06/22 05:11:31;;;;;;;;;;;;;;;26.34;53.22;100195.91;4992513;28;19926;-82
2021/06/22 05:13:57;;;;;;;;;;;;;;;26.34;53.64;100192.31;4976122;28;20072;-83
2021/06/22 05:16:23;;;;;;;;;;;;;;;26.45;53.74;100193.91;4977924;28;19991;-82
2021/06/22 05:18:49;;;;;;;;;;;;;;;26.56;53.09;100184.75;4991204;28;20072;-83
2021/06/22 05:21:15;;;;;;;;;;;;;;;26.61;54.20;100195.56;4974302;28;19926;-82
2021/06/22 05:23:42;;;;;;;;;;;;;;;26.66;54.39;100197.97;4972171;28;20087;-82
2021/06/22 05:26:08;;;;;;;;;;;;;;;26.78;53.88;100191.16;4976839;28;20337;-83
2021/06/22 05:28:34;;;;;;;;;;;;;;;26.97;52.31;100195.53;4970740;28;19941;-82
2021/06/22 05:31:00;;;;;;;;;;;;;;;27.02;52.61;100193.13;4969825;28;19926;-82
2021/06/22 05:33:26;;;;;;;;;;;;;;;27.11;51.78;100195.50;4982184;28;20016;-82
2021/06/22 05:35:52;;;;;;;;;;;;;;;27.21;51.10;100191.09;4990691;28;19933;-82
2021/06/22 05:38:17;;;;;;;;;;;;;;;27.29;51.30;100193.50;4978554;28;20027;-83
2021/06/22 05:40:44;;;;;;;;;;;;;;;27.31;50.72;100195.88;4986549;28;19925;-83
2021/06/22 05:43:10;;;;;;;;;;;;;;;27.41;50.07;100197.84;4985710;28;20478;-82
2021/06/22 05:45:35;;;;;;;;;;;;;;;27.45;49.99;100186.63;4972721;28;19969;-83
2021/06/22 05:48:01;;;;;;;;;;;;;;;27.51;50.62;100197.03;4973379;28;19933;-82
2021/06/22 05:50:28;;;;;;;;;;;;;;;27.52;50.61;100193.03;4980538;28;19980;-83
2021/06/22 05:52:55;;;;;;;;;;;;;;;27.61;49.48;100190.56;4959011;28;19930;-82
2021/06/22 05:55:22;;;;;;;;;;;;;;;27.66;49.38;100197.78;4955037;28;19959;-82
2021/06/22 05:57:49;;;;;;;;;;;;;;;27.74;49.12;100181.69;4966046;28;20411;-83
2021/06/22 06:00:16;;;;;;;;;;;;;;;27.82;49.21;100191.72;4955993;28;19933;-83
2021/06/22 06:02:42;;;;;;;;;;;;;;;27.91;49.36;100180.00;4955561;28;20557;-83
2021/06/22 06:05:09;;;;;;;;;;;;;;;27.97;48.99;100178.38;4971109;28;19965;-82
2021/06/22 06:07:36;;;;;;;;;;;;;;;28.04;48.78;100179.13;4972091;28;19926;-83
2021/06/22 06:10:05;;;;;;;;;;;;;;;28.10;49.02;100183.09;4974620;28;19926;-83
2021/06/22 06:12:31;;;;;;;;;;;;;;;28.15;49.34;100186.72;4977064;28;19921;-83
2021/06/22 06:14:57;;;;;;;;;;;;;;;28.21;49.24;100177.44;4975705;28;20296;-83
2021/06/22 06:17:23;;;;;;;;;;;;;;;28.28;48.59;100182.22;4976049;28;19988;-83
2021/06/22 06:19:50;;;;;;;;;;;;;;;28.35;49.45;100170.91;4976811;28;19955;-83
2021/06/22 06:22:17;;;;;;;;;;;;;;;28.43;48.44;100171.66;4958376;28;19926;-83
2021/06/22 06:24:43;;;;;;;;;;;;;;;28.48;48.14;100172.03;4976009;28;19926;-83
2021/06/22 06:27:15;;;;;;;;;;;;;;;28.54;48.23;100178.00;4958004;28;20427;-82
2021/06/22 06:32:10;;;;;;;;;;;;;;;28.62;48.26;100179.53;4991639;28;20417;-83
2021/06/22 06:34:36;;;;;;;;;;;;;;;28.70;48.93;100177.47;4991577;28;19930;-81
2021/06/22 06:37:02;;;;;;;;;;;;;;;28.83;48.07;100178.53;4972869;28;19949;-82
2021/06/22 06:39:28;;;;;;;;;;;;;;;28.88;47.40;100175.28;4975034;28;19926;-83
2021/06/22 06:41:54;;;;;;;;;;;;;;;28.97;47.01;100178.41;4973217;28;20379;-82
2021/06/22 06:44:19;;;;;;;;;;;;;;;29.07;46.47;100170.28;4975354;28;20013;-83
2021/06/22 06:46:45;;;;;;;;;;;;;;;29.12;47.69;100173.44;4975237;28;19926;-83
2021/06/22 06:49:12;;;;;;;;;;;;;;;29.13;46.19;100172.22;4969606;28;19933;-82
2021/06/22 06:51:37;;;;;;;;;;;;;;;29.11;47.77;100171.06;4978473;28;19926;-81
2021/06/22 06:54:03;;;;;;;;;;;;;;;29.12;46.76;100170.63;4974492;28;19933;-81
2021/06/22 06:56:30;;;;;;;;;;;;;;;29.17;46.38;100169.38;4972595;28;19926;-82
2021/06/22 06:58:56;;;;;;;;;;;;;;;29.21;47.19;100170.94;4970941;28;20361;-83
2021/06/22 07:01:22;;;;;;;;;;;;;;;29.29;45.79;100177.28;4961264;28;19929;-82
2021/06/22 07:03:48;;;;;;;;;;;;;;;29.33;45.32;100183.66;4972745;28;19922;-82
2021/06/22 07:06:14;;;;;;;;;;;;;;;29.36;45.75;100180.00;4973387;28;19988;-83
2021/06/22 07:08:41;;;;;;;;;;;;;;;29.37;44.78;100173.19;4972877;28;19926;-82
2021/06/22 07:11:06;;;;;;;;;;;;;;;29.41;44.85;100171.13;4973369;28;19933;-81
2021/06/22 07:13:32;;;;;;;;;;;;;;;29.49;45.65;100166.19;4972284;28;19930;-81
2021/06/22 07:15:59;;;;;;;;;;;;;;;29.53;45.54;100166.13;4971556;28;19926;-82
2021/06/22 07:18:29;;;;;;;;;;;;;;;29.57;45.09;100167.69;4973199;28;20406;-83
2021/06/22 07:20:55;;;;;;;;;;;;;;;29.62;45.90;100167.25;4972951;28;20415;-81
2021/06/22 07:23:21;;;;;;;;;;;;;;;29.66;45.21;100162.34;4973580;28;20399;-89
2021/06/22 07:25:48;;;;;;;;;;;;;;;29.70;46.14;100154.69;4956590;28;20027;-80
2021/06/22 07:28:14;;;;;;;;;;;;;;;29.80;45.84;100169.03;4973203;28;20415;-81
2021/06/22 07:30:40;;;;;;;;;;;;;;;29.82;45.56;100166.59;4955475;28;20407;-80
2021/06/22 07:33:06;;;;;;;;;;;;;;;29.86;44.79;100168.13;4972880;28;20400;-79
2021/06/22 07:35:33;;;;;;;;;;;;;;;29.88;44.27;100162.06;4955691;28;20041;-84
2021/06/22 07:37:59;;;;;;;;;;;;;;;29.93;43.76;100161.59;4972903;28;20399;-87
2021/06/22 07:40:26;;;;;;;;;;;;;;;29.96;45.06;100164.34;4972939;28;19934;-85
2021/06/22 07:42:53;;;;;;;;;;;;;;;30.01;43.95;100163.09;4973131;28;19930;-80
2021/06/22 07:45:19;;;;;;;;;;;;;;;30.09;43.74;100166.59;4973126;28;19968;-78
2021/06/22 07:47:45;;;;;;;;;;;;;;;30.14;44.66;100169.75;4973125;28;19932;-84
2021/06/22 07:50:12;;;;;;;;;;;;;;;30.19;44.38;100174.91;4973259;28;19980;-80
2021/06/22 07:52:38;;;;;;;;;;;;;;;30.23;43.52;100174.84;4983016;28;20441;-78
2021/06/22 07:55:05;;;;;;;;;;;;;;;30.21;43.91;100176.53;4993513;28;19984;-79
2021/06/22 07:57:32;;;;;;;;;;;;;;;30.24;42.45;100175.69;4993260;28;19926;-79
2021/06/22 07:59:58;;;;;;;;;;;;;;;30.29;44.18;100175.97;4981708;28;19947;-79
2021/06/22 08:02:24;;;;;;;;;;;;;;;30.37;44.12;100182.31;4975776;28;19933;-79
2021/06/22 08:04:51;;;;;;;;;;;;;;;30.40;43.47;100176.63;4974244;28;19932;-85
2021/06/22 08:07:17;;;;;;;;;;;;;;;30.39;43.61;100175.00;4972755;28;19930;-82
2021/06/22 08:09:43;;;;;;;;;;;;;;;30.43;42.75;100184.22;4973345;28;19973;-79
2021/06/22 08:12:11;;;;;;;;;;;;;;;30.49;41.21;100178.88;4975146;28;20434;-79
2021/06/22 08:14:38;;;;;;;;;;;;;;;30.52;42.83;100186.50;4955346;28;19930;-79
2021/06/22 08:17:04;;;;;;;;;;;;;;;30.57;41.21;100185.22;4955454;28;20296;-77
2021/06/22 08:19:31;;;;;;;;;;;;;;;30.56;40.79;100187.25;4957629;28;20024;-85
2021/06/22 08:21:57;;;;;;;;;;;;;;;30.61;42.44;100180.31;4950986;28;20364;-85
2021/06/22 08:24:23;;;;;;;;;;;;;;;30.60;40.06;100178.72;4969925;28;19930;-81
2021/06/22 08:26:48;;;;;;;;;;;;;;;30.62;41.85;100179.88;4973110;28;20403;-83
2021/06/22 08:29:15;;;;;;;;;;;;;;;30.64;40.57;100185.09;4965489;28;19930;-78
2021/06/22 08:31:41;;;;;;;;;;;;;;;30.70;40.05;100182.59;4969252;28;20487;-79
2021/06/22 08:34:08;;;;;;;;;;;;;;;30.72;40.36;100177.28;4968284;28;20458;-84
2021/06/22 08:36:34;;;;;;;;;;;;;;;30.73;39.09;100178.88;4971427;28;19926;-80
2021/06/22 08:39:00;;;;;;;;;;;;;;;30.76;41.71;100178.88;4968803;28;20384;-80
2021/06/22 08:41:26;;;;;;;;;;;;;;;30.82;41.69;100185.59;4954911;28;19933;-78
2021/06/22 08:43:55;;;;;;;;;;;;;;;30.88;41.84;100188.72;4971586;28;19930;-80
2021/06/22 08:46:21;;;;;;;;;;;;;;;30.91;41.78;100187.09;4970580;28;20307;-84
2021/06/22 08:48:48;;;;;;;;;;;;;;;30.94;40.52;100183.41;4971775;28;20399;-79
2021/06/22 08:51:14;;;;;;;;;;;;;;;30.96;40.66;100180.91;4955926;28;19926;-79
2021/06/22 08:53:40;;;;;;;;;;;;;;;30.98;41.10;100175.66;4967992;28;20055;-79
2021/06/22 08:56:06;;;;;;;;;;;;;;;31.02;41.38;100187.66;4968541;28;19926;-77
2021/06/22 08:58:34;;;;;;;;;;;;;;;31.05;40.40;100170.66;4968067;28;19936;-84
2021/06/22 09:01:00;;;;;;;;;;;;;;;31.09;41.07;100177.06;4971452;28;19984;-82
2021/06/22 09:03:26;;;;;;;;;;;;;;;31.13;41.10;100174.16;4953806;28;19969;-77
2021/06/22 09:05:56;;;;;;;;;;;;;;;31.13;41.51;100169.31;4967229;28;20242;-76
2021/06/22 09:08:24;;;;;;;;;;;;;;;31.15;42.15;100165.25;4971328;28;20029;-76
2021/06/22 09:10:53;;;;;;;;;;;;;;;31.18;41.23;100167.19;4958581;28;19962;-77
2021/06/22 09:13:22;;;;;;;;;;;;;;;31.22;40.75;100165.09;4953822;29;20388;-76
2021/06/22 09:15:49;;;;;;;;;;;;;;;31.25;40.91;100158.56;4966749;28;19972;-84
2021/06/22 09:18:21;;;;;;;;;;;;;;;31.27;40.19;100165.41;4974025;28;19926;-77
2021/06/22 09:20:47;;;;;;;;;;;;;;;31.30;40.39;100163.75;4977470;28;20028;-77
2021/06/22 09:23:14;;;;;;;;;;;;;;;31.33;40.73;100160.06;4955973;28;19969;-77
2021/06/22 09:25:41;;;;;;;;;;;;;;;31.37;39.95;100160.00;4972893;28;19933;-76
2021/06/22 09:28:07;;;;;;;;;;;;;;;31.37;38.22;100166.44;4972891;28;19929;-77
2021/06/22 09:30:46;;;;;;;;;;;;;;;31.36;38.68;100162.03;4981543;28;19930;-81
2021/06/22 09:33:19;;;;;;;;;;;;;;;31.37;40.10;100160.00;4984158;28;20314;-77
2021/06/22 09:35:47;;;;;;;;;;;;;;;31.40;39.46;100151.44;4986714;28;19926;-77
2021/06/22 09:38:13;;;;;;;;;;;;;;;31.44;39.11;100149.34;4970774;28;19984;-77
2021/06/22 09:40:39;;;;;;;;;;;;;;;31.50;39.56;100155.28;4956439;28;19956;-76
2021/06/22 09:43:05;;;;;;;;;;;;;;;31.58;39.48;100148.22;4973957;28;19969;-77
2021/06/22 09:45:31;;;;;;;;;;;;;;;31.63;38.85;100149.75;4975315;28;19926;-81
2021/06/22 09:48:02;;;;;;;;;;;;;;;31.64;39.44;100154.97;4976217;28;20015;-76
2021/06/22 09:50:33;;;;;;;;;;;;;;;31.73;39.17;100149.53;4976446;28;19926;-75
2021/06/22 09:53:31;;;;;;;;;;;;;;;31.79;39.04;100147.78;4976374;28;19973;-78
2021/06/22 09:55:58;;;;;;;;;;;;;;;31.81;38.89;100144.50;4936301;29;19927;-78
2021/06/22 09:58:40;;;;;;;;;;;;;;;31.76;39.15;100140.16;4949355;29;19926;-79
2021/06/22 10:01:25;;;;;;;;;;;;;;;31.70;38.90;100143.94;4918593;29;19975;-77
2021/06/22 10:03:51;;;;;;;;;;;;;;;31.76;39.23;100142.19;4933260;29;20491;-78
2021/06/22 10:06:17;;;;;;;;;;;;;;;31.83;40.06;100144.88;4933852;29;19966;-77
2021/06/22 10:09:03;;;;;;;;;;;;;;;31.89;37.61;100150.81;4935218;29;19931;-77
2021/06/22 10:11:40;;;;;;;;;;;;;;;31.89;37.99;100137.47;4916347;29;20010;-79
2021/06/22 10:14:10;;;;;;;;;;;;;;;31.92;38.50;100142.25;4916242;29;20329;-78
2021/06/22 10:16:36;;;;;;;;;;;;;;;32.01;38.38;100135.97;4930736;29;19927;-84
2021/06/22 10:19:03;;;;;;;;;;;;;;;31.99;38.33;100136.44;4942338;29;19933;-81
2021/06/22 10:21:30;;;;;;;;;;;;;;;32.00;38.85;100143.69;4932949;29;20020;-78
2021/06/22 10:23:57;;;;;;;;;;;;;;;32.00;38.05;100129.53;4934021;29;19927;-79
2021/06/22 10:26:27;;;;;;;;;;;;;;;32.02;38.45;100129.91;4934930;29;19930;-79
2021/06/22 10:28:54;;;;;;;;;;;;;;;32.13;38.60;100135.28;4935245;29;20443;-81
2021/06/22 10:31:20;;;;;;;;;;;;;;;32.20;36.89;100123.00;4951439;28;19922;-79
2021/06/22 10:33:47;;;;;;;;;;;;;;;32.30;37.40;100119.13;4975604;28;19926;-79
2021/06/22 10:36:21;;;;;;;;;;;;;;;32.36;37.27;100119.38;4958442;28;19926;-84
2021/06/22 10:38:49;;;;;;;;;;;;;;;32.43;37.64;100122.06;4975626;28;20307;-83
2021/06/22 10:41:15;;;;;;;;;;;;;;;32.32;36.97;100124.31;4959120;28;19930;-80
2021/06/22 10:43:45;;;;;;;;;;;;;;;32.28;36.89;100125.22;4975593;28;19973;-88
2021/06/22 10:46:18;;;;;;;;;;;;;;;32.33;37.55;100126.72;4976484;28;20423;-94
2021/06/22 10:48:45;;;;;;;;;;;;;;;32.30;37.55;100127.59;4975785;28;19926;-77
2021/06/22 10:51:32;;;;;;;;;;;;;;;32.45;33.90;100128.06;4975757;28;19973;-87
2021/06/22 10:53:59;;;;;;;;;;;;;;;32.53;32.58;100125.84;4957769;28;19926;-87
2021/06/22 10:56:26;;;;;;;;;;;;;;;32.55;32.85;100121.34;4957483;28;20296;-75
2021/06/22 10:59:15;;;;;;;;;;;;;;;32.61;34.88;100116.72;4974971;28;19980;-79
2021/06/22 11:01:54;;;;;;;;;;;;;;;32.67;34.70;100114.16;4950269;28;19925;-77
2021/06/22 11:04:20;;;;;;;;;;;;;;;32.67;32.58;100114.94;4975006;28;19970;-79
2021/06/22 11:07:04;;;;;;;;;;;;;;;32.66;33.21;100110.53;4974601;28;20311;-75
2021/06/22 11:09:31;;;;;;;;;;;;;;;32.68;33.68;100113.72;4975226;28;19948;-87
2021/06/22 11:12:16;;;;;;;;;;;;;;;32.80;32.23;100109.34;4974856;28;19926;-76
2021/06/22 11:15:01;;;;;;;;;;;;;;;32.86;30.51;100106.75;4974773;28;19930;-75
2021/06/22 11:17:42;;;;;;;;;;;;;;;32.81;32.24;100110.13;4974658;28;19926;-76
2021/06/22 11:20:13;;;;;;;;;;;;;;;32.83;32.13;100107.66;4974952;28;19989;-75
2021/06/22 11:23:11;;;;;;;;;;;;;;;32.86;31.88;100103.94;4974684;28;19926;-75
2021/06/22 11:25:47;;;;;;;;;;;;;;;32.89;31.34;100101.00;4952443;28;20327;-75
2021/06/22 11:28:14;;;;;;;;;;;;;;;32.97;30.67;100101.63;4989760;28;19983;-75
2021/06/22 11:30:46;;;;;;;;;;;;;;;32.97;31.69;100095.94;4974929;28;20150;-75
2021/06/22 11:33:28;;;;;;;;;;;;;;;33.04;32.20;100089.28;4974565;28;19930;-75
2021/06/22 11:36:13;;;;;;;;;;;;;;;33.08;30.64;100092.81;4974812;28;19960;-75
2021/06/22 11:38:40;;;;;;;;;;;;;;;33.14;28.70;100091.81;4974602;28;19926;-75
2021/06/22 11:41:09;;;;;;;;;;;;;;;33.16;31.65;100091.38;4974558;28;19926;-75
2021/06/22 11:43:36;;;;;;;;;;;;;;;33.19;31.90;100084.81;4974661;28;20315;-75
2021/06/22 11:46:21;;;;;;;;;;;;;;;33.22;31.17;100087.53;4974299;28;19933;-74
2021/06/22 11:48:59;;;;;;;;;;;;;;;33.22;31.23;100083.91;4974390;28;19926;-74
2021/06/22 11:51:44;;;;;;;;;;;;;;;33.18;30.45;100089.69;4989423;28;19958;-74
2021/06/22 11:54:10;;;;;;;;;;;;;;;33.31;30.08;100092.56;4974342;28;19980;-74
2021/06/22 11:56:36;;;;;;;;;;;;;;;33.43;30.55;100088.91;4974421;28;19930;-73
2021/06/22 11:59:02;;;;;;;;;;;;;;;33.52;28.21;100088.28;4973889;28;19948;-73
2021/06/22 12:01:28;;;;;;;;;;;;;;;33.51;30.02;100080.22;4974079;28;20004;-74
2021/06/22 12:03:54;;;;;;;;;;;;;;;33.43;30.66;100083.25;4973897;28;19933;-73
2021/06/22 12:06:24;;;;;;;;;;;;;;;33.52;27.92;100081.84;4974256;28;19977;-74
2021/06/22 12:08:50;;;;;;;;;;;;;;;33.56;30.11;100086.13;4973049;28;20336;-74
2021/06/22 12:13:45;;;;;;;;;;;;;;;33.52;26.51;100079.00;4973854;28;19932;-73
2021/06/22 12:16:13;;;;;;;;;;;;;;;33.64;27.68;100081.03;4973782;28;20311;-73
2021/06/22 12:18:39;;;;;;;;;;;;;;;33.68;29.90;100076.06;4973836;28;20403;-74
2021/06/22 12:21:07;;;;;;;;;;;;;;;33.84;29.23;100067.44;4974057;28;19996;-74
2021/06/22 12:23:33;;;;;;;;;;;;;;;33.94;27.48;100073.97;4973696;28;19930;-74
2021/06/22 12:26:00;;;;;;;;;;;;;;;34.03;26.60;100068.44;4973652;28;19972;-73
2021/06/22 12:28:30;;;;;;;;;;;;;;;34.04;26.63;100063.56;4973875;28;19993;-74
2021/06/22 12:30:57;;;;;;;;;;;;;;;34.04;29.46;100070.06;4973624;28;19972;-74
2021/06/22 12:33:24;;;;;;;;;;;;;;;34.01;30.15;100073.00;4973503;28;19930;-74
2021/06/22 12:35:52;;;;;;;;;;;;;;;34.07;29.02;100063.47;4973755;28;19933;-73
2021/06/22 12:38:20;;;;;;;;;;;;;;;34.08;28.61;100065.06;4973554;28;19980;-73
2021/06/22 12:40:48;;;;;;;;;;;;;;;34.02;29.74;100066.09;4973719;28;19926;-73
2021/06/22 12:43:16;;;;;;;;;;;;;;;33.97;29.80;100058.88;4973455;28;19932;-74
2021/06/22 12:45:43;;;;;;;;;;;;;;;34.01;29.68;100056.78;4974002;28;19926;-73
2021/06/22 12:48:09;;;;;;;;;;;;;;;34.03;29.95;100059.16;4973537;28;19933;-74